Time;durP1;ratioP1;P1;durP2;ratioP2;P2;SDS_P1;SDS_P2;PMS_P1;PMS_P2;Temp;Humidity;BMP_temperature;BMP_pressure;BME280_temperature;BME280_humidity;BME280_pressure;Samples;Min_cycle;Max_cycle;Signal;HPM_P1;HPM_P2
2023/03/08 00:01:21;;;;;;;13.43;7.28;;;;;;;1.55;100.00;99689.78;4990805;28;20034;-58
2023/03/08 00:03:50;;;;;;;12.20;7.00;;;;;;;1.54;100.00;99683.81;4987247;28;20120;-59
2023/03/08 00:06:15;;;;;;;11.52;6.40;;;;;;;1.57;100.00;99683.84;4987358;28;20038;-58
2023/03/08 00:08:41;;;;;;;14.05;7.10;;;;;;;1.57;100.00;99683.00;4987147;28;20104;-59
2023/03/08 00:11:09;;;;;;;14.40;6.75;;;;;;;1.60;100.00;99683.03;4986460;28;20080;-59
2023/03/08 00:13:35;;;;;;;13.70;6.85;;;;;;;1.60;100.00;99690.66;4986017;28;20072;-59
2023/03/08 00:16:03;;;;;;;13.73;7.18;;;;;;;1.60;100.00;99688.97;4991605;28;20038;-59
2023/03/08 00:18:28;;;;;;;12.57;6.70;;;;;;;1.61;100.00;99684.75;4990030;28;20037;-58
2023/03/08 00:21:02;;;;;;;13.98;6.68;;;;;;;1.59;100.00;99679.66;4992408;28;20046;-59
2023/03/08 00:23:27;;;;;;;13.40;7.38;;;;;;;1.58;100.00;99675.38;4994403;28;20057;-58
2023/03/08 00:25:53;;;;;;;12.85;6.63;;;;;;;1.55;100.00;99677.91;4992666;28;20664;-59
2023/03/08 00:28:19;;;;;;;16.08;7.85;;;;;;;1.57;100.00;99680.44;4990774;28;20037;-58
2023/03/08 00:30:45;;;;;;;12.48;6.70;;;;;;;1.57;100.00;99673.66;4994410;28;20043;-58
2023/03/08 00:33:11;;;;;;;12.13;6.53;;;;;;;1.56;100.00;99677.06;4988981;28;20652;-58
2023/03/08 00:35:36;;;;;;;12.88;6.50;;;;;;;1.55;100.00;99680.44;4991856;28;20029;-58
2023/03/08 00:38:01;;;;;;;18.52;6.75;;;;;;;1.56;100.00;99678.75;4982361;28;20568;-58
2023/03/08 00:40:27;;;;;;;12.57;6.97;;;;;;;1.57;100.00;99671.13;4993321;28;20047;-59
2023/03/08 00:42:52;;;;;;;10.80;6.22;;;;;;;1.58;100.00;99672.84;4994575;28;20042;-59
2023/03/08 00:45:17;;;;;;;14.48;7.50;;;;;;;1.58;100.00;99669.44;4990773;28;21040;-59
2023/03/08 00:47:43;;;;;;;13.32;6.95;;;;;;;1.57;100.00;99671.13;4989826;28;20030;-59
2023/03/08 00:50:09;;;;;;;13.15;6.93;;;;;;;1.56;100.00;99668.56;4994788;28;20084;-59
2023/03/08 00:52:34;;;;;;;11.60;6.65;;;;;;;1.58;100.00;99669.44;4993495;28;20040;-59
2023/03/08 00:54:59;;;;;;;14.52;7.70;;;;;;;1.61;100.00;99670.31;4991847;28;20088;-59
2023/03/08 00:57:25;;;;;;;11.88;6.50;;;;;;;1.62;100.00;99658.44;4991133;28;20038;-59
2023/03/08 00:59:50;;;;;;;11.82;6.30;;;;;;;1.63;100.00;99657.59;4994533;28;20297;-59
2023/03/08 01:02:15;;;;;;;14.45;7.35;;;;;;;1.61;100.00;99665.22;4996013;28;20504;-59
2023/03/08 01:04:41;;;;;;;14.82;7.47;;;;;;;1.61;100.00;99656.72;4991896;28;20068;-59
2023/03/08 01:07:06;;;;;;;15.55;7.05;;;;;;;1.60;100.00;99652.47;4985526;28;20042;-59
2023/03/08 01:09:32;;;;;;;11.20;6.55;;;;;;;1.60;100.00;99652.47;4989481;28;20042;-59
2023/03/08 01:11:57;;;;;;;13.48;6.70;;;;;;;1.61;100.00;99652.50;4992883;28;20042;-59
2023/03/08 01:14:22;;;;;;;14.35;6.97;;;;;;;1.61;100.00;99657.59;4985985;28;20029;-60
2023/03/08 01:16:48;;;;;;;14.55;7.22;;;;;;;1.60;100.00;99647.38;4996535;28;20642;-59
2023/03/08 01:19:13;;;;;;;15.80;7.57;;;;;;;1.60;100.00;99647.38;4995141;28;20410;-58
2023/03/08 01:21:39;;;;;;;12.98;7.43;;;;;;;1.62;100.00;99645.72;4998551;28;20563;-58
2023/03/08 01:24:05;;;;;;;14.57;7.32;;;;;;;1.62;100.00;99641.47;4996683;28;20125;-58
2023/03/08 01:26:30;;;;;;;18.20;7.35;;;;;;;1.61;100.00;99636.34;4996498;28;20044;-59
2023/03/08 01:28:56;;;;;;;16.15;7.47;;;;;;;1.59;100.00;99628.72;4995520;28;20033;-59
2023/03/08 01:31:27;;;;;;;14.98;6.65;;;;;;;1.60;100.00;99627.00;4991348;28;20496;-59
2023/03/08 01:33:53;;;;;;;11.32;6.15;;;;;;;1.59;100.00;99621.06;4992330;28;20096;-59
2023/03/08 01:36:22;;;;;;;11.70;6.82;;;;;;;1.59;100.00;99618.53;4988222;28;20038;-59
2023/03/08 01:38:48;;;;;;;14.95;6.65;;;;;;;1.59;100.00;99618.53;4986698;28;20025;-59
2023/03/08 01:41:25;;;;;;;15.20;6.82;;;;;;;1.58;100.00;99619.34;4991450;28;20111;-59
2023/03/08 01:43:51;;;;;;;12.63;6.65;;;;;;;1.59;100.00;99617.66;4997922;28;20045;-59
2023/03/08 01:46:30;;;;;;;14.55;7.30;;;;;;;1.60;100.00;99606.63;4994410;28;20046;-59
2023/03/08 01:48:55;;;;;;;10.85;6.15;;;;;;;1.57;100.00;99606.59;4990423;28;20042;-60
2023/03/08 01:51:30;;;;;;;11.43;6.07;;;;;;;1.55;100.00;99603.19;4991034;28;20104;-60
2023/03/08 01:53:59;;;;;;;10.63;5.78;;;;;;;1.51;100.00;99602.31;4995644;28;20065;-60
2023/03/08 01:56:25;;;;;;;10.50;5.65;;;;;;;1.48;100.00;99592.09;4995297;28;20061;-59
2023/03/08 01:58:51;;;;;;;11.63;5.20;;;;;;;1.48;100.00;99593.81;4988275;28;20042;-59
2023/03/08 02:01:19;;;;;;;9.88;5.20;;;;;;;1.47;100.00;99590.41;4993398;28;20053;-59
2023/03/08 02:03:45;;;;;;;11.82;5.30;;;;;;;1.46;100.00;99582.75;4994527;28;20034;-59
2023/03/08 02:06:12;;;;;;;13.15;6.07;;;;;;;1.45;100.00;99581.06;4992356;28;20057;-59
2023/03/08 02:08:38;;;;;;;11.82;6.95;;;;;;;1.44;100.00;99575.09;4993632;28;20030;-59
2023/03/08 02:11:04;;;;;;;12.25;7.22;;;;;;;1.45;100.00;99574.25;4992716;28;20057;-59
2023/03/08 02:13:30;;;;;;;11.68;6.80;;;;;;;1.44;100.00;99572.56;4990040;28;20049;-58
2023/03/08 02:15:57;;;;;;;10.98;6.18;;;;;;;1.46;100.00;99568.31;4992964;28;20038;-59
2023/03/08 02:18:23;;;;;;;12.18;6.28;;;;;;;1.48;100.00;99565.81;4992283;28;20045;-59
2023/03/08 02:20:48;;;;;;;13.13;7.47;;;;;;;1.47;100.00;99564.94;4991481;28;20079;-58
2023/03/08 02:23:18;;;;;;;15.43;7.05;;;;;;;1.43;100.00;99562.34;4990374;28;20113;-59
2023/03/08 02:26:03;;;;;;;12.18;6.50;;;;;;;1.41;100.00;99571.66;4992617;28;20065;-59
2023/03/08 02:28:29;;;;;;;;;;;;;;;1.37;100.00;99569.94;4990841;28;20093;-58
2023/03/08 02:30:55;;;;;;;12.55;5.63;;;;;;;1.33;100.00;99566.50;4993114;28;19976;-58
2023/03/08 02:33:21;;;;;;;16.00;6.60;;;;;;;1.28;100.00;99563.06;4995716;28;20045;-58
2023/03/08 02:35:47;;;;;;;14.68;6.18;;;;;;;1.24;100.00;99562.16;4992797;28;20071;-58
2023/03/08 02:38:15;;;;;;;15.20;6.82;;;;;;;1.22;100.00;99555.38;4994751;28;20030;-58
2023/03/08 02:40:41;;;;;;;15.57;7.13;;;;;;;1.20;100.00;99549.41;5002437;28;20042;-58
2023/03/08 02:43:06;;;;;;;11.75;6.20;;;;;;;1.18;100.00;99554.47;4993427;28;20041;-58
2023/03/08 02:45:33;;;;;;;18.00;6.90;;;;;;;1.15;100.00;99551.91;4994841;28;20095;-58
2023/03/08 02:48:03;;;;;;;14.90;7.63;;;;;;;1.13;100.00;99530.69;4998505;28;20049;-58
2023/03/08 02:50:28;;;;;;;13.23;6.55;;;;;;;1.13;100.00;99523.06;4994896;28;20033;-58
2023/03/08 02:52:54;;;;;;;12.48;6.65;;;;;;;1.13;100.00;99532.38;4990194;28;20120;-58
2023/03/08 02:55:19;;;;;;;13.00;6.10;;;;;;;1.12;100.00;99523.88;4990822;28;20274;-59
2023/03/08 02:57:45;;;;;;;12.40;6.15;;;;;;;1.11;100.00;99524.75;4995150;28;20045;-58
2023/03/08 03:00:11;;;;;;;15.27;7.75;;;;;;;1.11;100.00;99527.28;4991561;28;20046;-58
2023/03/08 03:02:36;;;;;;;13.55;6.55;;;;;;;1.11;100.00;99524.75;4997150;28;20395;-58
2023/03/08 03:05:03;;;;;;;14.23;6.95;;;;;;;1.11;100.00;99528.97;4994058;28;20038;-59
2023/03/08 03:07:29;;;;;;;15.80;6.70;;;;;;;1.11;100.00;99522.19;4995798;28;20126;-59
2023/03/08 03:09:54;;;;;;;14.77;8.48;;;;;;;1.10;100.00;99512.84;4996771;28;20033;-58
2023/03/08 03:12:19;;;;;;;13.43;6.85;;;;;;;1.09;100.00;99513.69;4998918;28;20522;-58
2023/03/08 03:14:45;;;;;;;15.32;7.22;;;;;;;1.08;100.00;99514.53;4993406;28;20419;-58
2023/03/08 03:17:10;;;;;;;20.17;8.35;;;;;;;1.07;100.00;99515.38;4998134;28;20042;-58
2023/03/08 03:19:36;;;;;;;16.00;7.72;;;;;;;1.06;100.00;99500.09;4997062;28;20033;-58
2023/03/08 03:22:02;;;;;;;19.65;8.57;;;;;;;1.03;100.00;99493.28;4995273;28;20119;-58
2023/03/08 03:24:27;;;;;;;19.40;9.02;;;;;;;1.02;100.00;99493.25;4994604;28;20487;-58
2023/03/08 03:26:53;;;;;;;22.50;9.27;;;;;;;1.01;100.00;99482.22;4994656;28;20784;-58
2023/03/08 03:29:18;;;;;;;22.77;10.30;;;;;;;0.97;100.00;99480.50;4999634;28;20038;-58
2023/03/08 03:31:44;;;;;;;20.98;9.85;;;;;;;0.97;100.00;99477.13;4998607;28;20037;-59
2023/03/08 03:34:09;;;;;;;23.38;10.35;;;;;;;0.98;100.00;99478.81;4991587;28;20046;-59
2023/03/08 03:36:34;;;;;;;30.02;11.27;;;;;;;0.97;100.00;99477.97;5002836;28;20108;-58
2023/03/08 03:39:00;;;;;;;28.35;12.30;;;;;;;0.97;100.00;99475.44;4990503;28;20092;-58
2023/03/08 03:41:25;;;;;;;24.25;11.50;;;;;;;0.97;100.00;99474.56;4986539;28;20030;-58
2023/03/08 03:43:51;;;;;;;28.77;11.80;;;;;;;0.97;100.00;99472.03;4998129;28;20031;-58
2023/03/08 03:46:19;;;;;;;27.17;12.00;;;;;;;0.96;100.00;99458.44;4994017;28;20050;-59
2023/03/08 03:48:44;;;;;;;30.25;12.35;;;;;;;0.94;100.00;99462.69;4995968;28;20067;-58
2023/03/08 03:51:16;;;;;;;31.23;13.50;;;;;;;0.94;100.00;99455.06;4997184;28;20038;-58
2023/03/08 03:53:41;;;;;;;31.65;13.18;;;;;;;0.93;100.00;99458.41;5004901;28;20041;-58
2023/03/08 03:56:11;;;;;;;33.50;13.18;;;;;;;0.92;100.00;99461.78;4992166;28;20026;-59
2023/03/08 03:58:36;;;;;;;33.15;14.57;;;;;;;0.93;100.00;99458.41;4994939;28;20034;-59
2023/03/08 04:01:15;;;;;;;39.22;14.68;;;;;;;0.93;100.00;99458.41;4990837;28;20116;-59
2023/03/08 04:03:40;;;;;;;36.20;14.05;;;;;;;0.94;100.00;99449.09;4990094;28;20056;-59
2023/03/08 04:06:08;;;;;;;28.75;12.57;;;;;;;0.95;100.00;99456.72;4990843;28;20043;-59
2023/03/08 04:08:40;;;;;;;28.48;12.90;;;;;;;0.95;100.00;99455.88;4991018;28;20061;-58
2023/03/08 04:11:07;;;;;;;28.02;11.75;;;;;;;0.92;100.00;99449.06;4993607;28;20018;-59
2023/03/08 04:13:32;;;;;;;25.52;12.05;;;;;;;0.90;100.00;99440.59;4990875;28;20119;-59
2023/03/08 04:15:57;;;;;;;25.70;10.95;;;;;;;0.90;100.00;99439.72;4987290;28;20150;-58
2023/03/08 04:18:23;;;;;;;21.67;9.85;;;;;;;0.87;100.00;99438.00;4988916;28;20039;-58
2023/03/08 04:20:48;;;;;;;19.65;8.55;;;;;;;0.86;100.00;99438.84;4996856;28;20037;-58
2023/03/08 04:23:13;;;;;;;17.30;7.72;;;;;;;0.85;100.00;99427.00;4988391;28;20054;-58
2023/03/08 04:25:39;;;;;;;16.63;7.15;;;;;;;0.84;100.00;99422.72;4990698;28;20045;-59
2023/03/08 04:28:04;;;;;;;16.90;7.85;;;;;;;0.84;100.00;99419.31;4986434;28;20044;-59
2023/03/08 04:30:30;;;;;;;13.38;6.32;;;;;;;0.83;100.00;99421.00;4990907;28;20037;-58
2023/03/08 04:32:55;;;;;;;15.70;6.32;;;;;;;0.82;100.00;99415.94;4987255;28;20046;-58
2023/03/08 04:35:21;;;;;;;15.02;6.97;;;;;;;0.81;100.00;99412.53;4989959;28;20080;-58
2023/03/08 04:37:47;;;;;;;13.25;6.68;;;;;;;0.81;100.00;99407.44;4989591;28;20052;-58
2023/03/08 04:40:13;;;;;;;18.77;7.10;;;;;;;0.82;100.00;99404.06;4990144;28;20038;-58
2023/03/08 04:42:39;;;;;;;14.73;6.90;;;;;;;0.81;100.00;99401.50;4995423;28;20544;-58
2023/03/08 04:45:06;;;;;;;16.85;7.20;;;;;;;0.81;100.00;99392.19;4990789;28;20444;-58
2023/03/08 04:47:32;;;;;;;9.38;5.85;;;;;;;0.80;100.00;99385.38;4989840;28;20476;-58
2023/03/08 04:49:57;;;;;;;15.15;6.50;;;;;;;0.82;100.00;99377.78;4991631;28;20033;-58
2023/03/08 04:52:23;;;;;;;16.08;7.57;;;;;;;0.81;100.00;99365.91;4985801;28;20042;-58
2023/03/08 04:54:48;;;;;;;18.85;7.50;;;;;;;0.80;100.00;99359.94;4993398;28;20097;-58
2023/03/08 04:57:14;;;;;;;16.13;8.60;;;;;;;0.80;100.00;99364.19;4990971;28;20769;-58
2023/03/08 04:59:39;;;;;;;17.95;8.68;;;;;;;0.80;100.00;99356.56;4991728;28;20061;-58
2023/03/08 05:02:04;;;;;;;19.95;8.02;;;;;;;0.79;100.00;99349.78;4993955;28;20931;-59
2023/03/08 05:04:30;;;;;;;20.27;8.93;;;;;;;0.79;100.00;99344.69;4989201;28;20090;-59
2023/03/08 05:06:55;;;;;;;22.75;8.70;;;;;;;0.78;100.00;99340.44;4985384;28;20038;-59
2023/03/08 05:09:20;;;;;;;19.75;8.40;;;;;;;0.76;100.00;99342.97;4985813;28;20066;-58
2023/03/08 05:11:46;;;;;;;23.85;9.30;;;;;;;0.76;100.00;99331.97;4994327;28;20149;-58
2023/03/08 05:14:11;;;;;;;27.77;10.93;;;;;;;0.77;100.00;99333.66;4985412;28;20054;-58
2023/03/08 05:16:36;;;;;;;25.17;10.35;;;;;;;0.76;100.00;99331.97;4989312;28;20044;-58
2023/03/08 05:19:02;;;;;;;26.75;11.65;;;;;;;0.76;100.00;99327.72;4989281;28;20042;-59
2023/03/08 05:21:27;;;;;;;28.00;11.00;;;;;;;0.76;100.00;99315.00;4992832;28;20487;-58
2023/03/08 05:23:53;;;;;;;24.08;10.10;;;;;;;0.77;100.00;99310.78;4991354;28;20136;-58
2023/03/08 05:26:18;;;;;;;28.35;10.55;;;;;;;0.75;100.00;99308.22;4989781;28;20068;-59
2023/03/08 05:28:44;;;;;;;27.27;9.93;;;;;;;0.74;100.00;99294.63;4988353;28;20526;-58
2023/03/08 05:31:15;;;;;;;30.35;10.95;;;;;;;0.76;100.00;99293.81;4991946;28;20510;-58
2023/03/08 05:33:42;;;;;;;25.13;10.77;;;;;;;0.76;100.00;99287.03;4993257;28;20120;-59
2023/03/08 05:36:09;;;;;;;28.00;11.32;;;;;;;0.76;100.00;99276.00;4989446;28;20073;-59
2023/03/08 05:38:35;;;;;;;28.33;10.70;;;;;;;0.75;100.00;99267.53;4988741;28;20026;-59
2023/03/08 05:41:01;;;;;;;29.33;10.88;;;;;;;0.77;100.00;99265.00;4986683;28;20045;-59
2023/03/08 05:43:27;;;;;;;33.50;12.50;;;;;;;0.76;100.00;99258.22;4989205;28;20049;-58
2023/03/08 05:46:01;;;;;;;29.27;12.48;;;;;;;0.77;100.00;99257.38;4988587;28;20034;-59
2023/03/08 05:48:27;;;;;;;31.40;12.43;;;;;;;0.74;100.00;99250.56;4988708;28;20052;-58
2023/03/08 05:50:53;;;;;;;34.30;13.82;;;;;;;0.78;100.00;99251.44;4988364;28;20049;-58
2023/03/08 05:53:19;;;;;;;34.13;12.15;;;;;;;0.78;100.00;99249.75;4997894;28;20069;-58
2023/03/08 05:55:45;;;;;;;35.13;13.75;;;;;;;0.78;100.00;99247.19;4992437;28;20088;-58
2023/03/08 05:58:10;;;;;;;34.70;14.02;;;;;;;0.78;100.00;99234.47;4994441;28;20111;-59
2023/03/08 06:00:36;;;;;;;39.00;14.13;;;;;;;0.79;100.00;99226.03;5008667;28;20074;-58
2023/03/08 06:03:02;;;;;;;40.90;13.98;;;;;;;0.81;100.00;99216.69;4998793;28;20052;-59
2023/03/08 06:05:28;;;;;;;32.22;13.10;;;;;;;0.81;100.00;99205.69;4996700;28;20037;-58
2023/03/08 06:07:54;;;;;;;31.98;14.25;;;;;;;0.79;100.00;99200.59;4996255;28;20042;-58
2023/03/08 06:10:20;;;;;;;32.33;13.60;;;;;;;0.83;100.00;99201.44;4992771;28;20042;-60
2023/03/08 06:12:45;;;;;;;39.00;15.43;;;;;;;0.81;100.00;99196.34;4990172;28;20046;-59
2023/03/08 06:15:11;;;;;;;36.67;14.25;;;;;;;0.79;100.00;99194.66;4990424;28;20046;-58
2023/03/08 06:17:38;;;;;;;36.55;14.38;;;;;;;0.79;100.00;99192.97;4990353;28;20392;-60
2023/03/08 06:20:03;;;;;;;41.53;14.70;;;;;;;0.81;100.00;99180.25;4991281;28;20034;-59
2023/03/08 06:22:29;;;;;;;38.13;13.88;;;;;;;0.80;100.00;99174.31;4991732;28;20042;-59
2023/03/08 06:24:54;;;;;;;35.00;13.93;;;;;;;0.80;100.00;99160.72;4990871;28;20042;-59
2023/03/08 06:27:19;;;;;;;42.78;15.75;;;;;;;0.81;100.00;99149.72;4994455;28;20058;-58
2023/03/08 06:29:45;;;;;;;41.17;14.57;;;;;;;0.81;100.00;99140.41;4994485;28;20530;-59
2023/03/08 06:32:10;;;;;;;42.30;15.52;;;;;;;0.80;100.00;99131.06;4989460;28;20037;-59
2023/03/08 06:34:36;;;;;;;41.28;15.57;;;;;;;0.81;100.00;99137.00;4991343;28;20038;-60
2023/03/08 06:37:01;;;;;;;40.13;15.18;;;;;;;0.80;100.00;99137.84;4990672;28;20133;-59
2023/03/08 06:39:29;;;;;;;31.58;15.10;;;;;;;0.81;100.00;99137.00;4987480;28;20121;-60
2023/03/08 06:41:55;;;;;;;33.90;15.15;;;;;;;0.82;100.00;99123.47;4987420;28;20049;-59
2023/03/08 06:44:20;;;;;;;33.15;13.55;;;;;;;0.82;100.00;99118.38;4994051;28;20041;-59
2023/03/08 06:46:46;;;;;;;31.40;13.90;;;;;;;0.82;100.00;99109.06;4989689;28;20095;-59
2023/03/08 06:49:11;;;;;;;39.58;15.23;;;;;;;0.83;100.00;99099.72;4995297;28;20042;-59
2023/03/08 06:51:37;;;;;;;35.42;13.85;;;;;;;0.81;100.00;99094.63;4998051;28;20064;-59
2023/03/08 06:54:03;;;;;;;34.13;14.20;;;;;;;0.84;100.00;99101.41;5000850;28;20108;-59
2023/03/08 06:56:29;;;;;;;27.88;13.18;;;;;;;0.84;100.00;99092.09;4987589;28;20045;-58
2023/03/08 06:58:55;;;;;;;32.75;14.00;;;;;;;0.84;100.00;99084.47;4995724;28;20044;-59
2023/03/08 07:01:20;;;;;;;28.60;12.23;;;;;;;0.86;100.00;99072.59;4992942;28;20415;-59
2023/03/08 07:03:47;;;;;;;31.95;12.85;;;;;;;0.87;100.00;99066.69;5000140;28;20049;-59
2023/03/08 07:06:13;;;;;;;30.35;11.77;;;;;;;0.88;100.00;99062.44;4988042;28;20422;-59
2023/03/08 07:08:40;;;;;;;27.35;12.38;;;;;;;0.90;100.00;99070.94;4986933;28;20038;-58
2023/03/08 07:11:07;;;;;;;32.45;13.10;;;;;;;0.91;100.00;99053.13;4985437;28;20040;-59
2023/03/08 07:13:33;;;;;;;29.40;13.30;;;;;;;0.94;100.00;99058.25;4992406;28;20394;-59
2023/03/08 07:16:05;;;;;;;26.95;12.68;;;;;;;0.97;100.00;99053.16;4996098;28;20046;-59
2023/03/08 07:18:30;;;;;;;27.75;11.77;;;;;;;1.00;100.00;99047.22;4994176;28;20550;-59
2023/03/08 07:20:56;;;;;;;25.77;11.95;;;;;;;0.98;100.00;99049.75;4990039;28;20042;-59
2023/03/08 07:23:22;;;;;;;25.90;12.30;;;;;;;1.02;100.00;99053.16;4995133;28;20034;-59
2023/03/08 07:25:47;;;;;;;23.85;12.02;;;;;;;1.04;100.00;99041.28;4991603;28;20081;-59
2023/03/08 07:28:12;;;;;;;26.65;13.07;;;;;;;1.06;100.00;99037.88;4991469;28;20462;-59
2023/03/08 07:30:38;;;;;;;27.23;12.00;;;;;;;1.08;100.00;99035.34;4986095;28;20035;-59
2023/03/08 07:33:03;;;;;;;26.05;11.75;;;;;;;1.10;100.00;99034.50;4995171;28;20033;-59
2023/03/08 07:35:29;;;;;;;23.77;12.00;;;;;;;1.09;100.00;99031.97;4996330;28;20044;-59
2023/03/08 07:37:54;;;;;;;22.20;11.48;;;;;;;1.10;100.00;99026.88;4991861;28;20040;-59
2023/03/08 07:40:20;;;;;;;29.15;12.85;;;;;;;1.13;100.00;99029.44;4990607;28;20082;-58
2023/03/08 07:42:46;;;;;;;21.15;11.10;;;;;;;1.12;100.00;99027.72;4992771;28;20133;-59
2023/03/08 07:45:12;;;;;;;28.60;12.23;;;;;;;1.10;100.00;99024.34;4991375;28;20149;-59
2023/03/08 07:47:39;;;;;;;26.98;12.30;;;;;;;1.12;100.00;99027.72;4991637;28;20037;-59
2023/03/08 07:50:05;;;;;;;26.88;13.98;;;;;;;1.13;100.00;99031.97;4988154;28;20043;-59
2023/03/08 07:52:31;;;;;;;24.77;11.95;;;;;;;1.14;100.00;99025.19;4990382;28;20045;-59
2023/03/08 07:54:56;;;;;;;23.63;11.43;;;;;;;1.13;100.00;99026.03;4985724;28;20046;-59
2023/03/08 07:57:23;;;;;;;25.58;12.63;;;;;;;1.17;100.00;99028.59;4993387;28;20154;-59
2023/03/08 07:59:51;;;;;;;29.08;12.88;;;;;;;1.17;100.00;99023.50;4994242;28;20475;-59
2023/03/08 08:02:16;;;;;;;21.77;12.00;;;;;;;1.15;100.00;99015.00;4989522;28;20038;-59
2023/03/08 08:04:42;;;;;;;23.98;12.70;;;;;;;1.14;100.00;99020.97;4984858;28;20049;-59
2023/03/08 08:07:12;;;;;;;21.15;11.95;;;;;;;1.13;100.00;99020.94;4989087;28;20145;-59
2023/03/08 08:09:38;;;;;;;22.17;12.23;;;;;;;1.10;100.00;99011.63;4988806;28;20085;-58
2023/03/08 08:12:04;;;;;;;24.13;12.73;;;;;;;1.09;100.00;99004.00;4992333;28;20042;-58
2023/03/08 08:14:29;;;;;;;30.40;12.57;;;;;;;1.13;100.00;99010.75;4990242;28;20116;-59
2023/03/08 08:16:56;;;;;;;27.85;12.68;;;;;;;1.17;100.00;98995.50;4991857;28;20684;-58
2023/03/08 08:19:21;;;;;;;22.90;11.55;;;;;;;1.20;100.00;98997.22;4989492;28;20113;-59
2023/03/08 08:21:46;;;;;;;25.13;12.25;;;;;;;1.24;100.00;98983.66;4990250;28;21048;-59
2023/03/08 08:24:12;;;;;;;29.42;12.05;;;;;;;1.28;100.00;98975.16;4992660;28;20583;-59
2023/03/08 08:26:38;;;;;;;22.65;11.60;;;;;;;1.35;100.00;98988.72;4988879;28;20642;-59
2023/03/08 08:29:03;;;;;;;24.15;11.90;;;;;;;1.37;100.00;98976.84;4995883;28;20030;-59
2023/03/08 08:31:32;;;;;;;21.13;11.55;;;;;;;1.37;100.00;98969.19;4992725;28;20061;-59
2023/03/08 08:33:58;;;;;;;23.23;11.38;;;;;;;1.38;100.00;98959.03;4991716;28;20045;-59
2023/03/08 08:36:24;;;;;;;22.35;11.13;;;;;;;1.40;100.00;98956.47;4991439;28;20163;-58
2023/03/08 08:38:49;;;;;;;20.20;11.55;;;;;;;1.39;100.00;98957.34;4989346;28;21588;-59
2023/03/08 08:41:17;;;;;;;28.75;13.52;;;;;;;1.40;100.00;98956.47;4988487;28;20030;-59
2023/03/08 08:43:44;;;;;;;21.33;10.82;;;;;;;1.43;100.00;98959.00;5001308;28;20045;-58
2023/03/08 08:46:10;;;;;;;21.02;11.35;;;;;;;1.39;100.00;98952.25;4987956;28;20116;-59
2023/03/08 08:48:37;;;;;;;23.35;12.68;;;;;;;1.42;100.00;98953.06;4987784;28;20140;-58
2023/03/08 08:51:04;;;;;;;22.25;11.82;;;;;;;1.45;100.00;98947.16;4993948;28;20565;-58
2023/03/08 08:53:30;;;;;;;21.60;11.48;;;;;;;1.46;100.00;98944.59;4991593;28;20112;-62
2023/03/08 08:55:56;;;;;;;21.13;11.63;;;;;;;1.50;100.00;98935.25;4991326;28;20026;-58
2023/03/08 08:58:22;;;;;;;27.20;13.38;;;;;;;1.58;100.00;98936.09;4991204;28;20037;-58
2023/03/08 09:00:47;;;;;;;23.05;11.95;;;;;;;1.65;100.00;98920.81;4989314;28;20038;-58
2023/03/08 09:03:12;;;;;;;23.98;12.98;;;;;;;1.66;100.00;98924.19;4992815;28;20044;-57
2023/03/08 09:05:40;;;;;;;23.80;12.15;;;;;;;1.69;100.00;98921.63;4986110;28;20042;-58
2023/03/08 09:08:06;;;;;;;23.65;12.05;;;;;;;1.70;100.00;98921.63;4989024;28;20034;-58
2023/03/08 09:10:34;;;;;;;20.77;12.82;;;;;;;1.72;100.00;98930.09;4983963;28;20081;-58
2023/03/08 09:13:00;;;;;;;22.23;12.65;;;;;;;1.72;100.00;98919.91;4987494;28;20049;-59
2023/03/08 09:15:26;;;;;;;23.20;12.50;;;;;;;1.72;100.00;98921.63;4991207;28;20042;-59
2023/03/08 09:17:52;;;;;;;33.08;16.48;;;;;;;1.74;100.00;98918.25;4983643;28;20128;-58
2023/03/08 09:20:18;;;;;;;24.73;14.10;;;;;;;1.74;100.00;98930.97;4993970;28;20034;-59
2023/03/08 09:22:43;;;;;;;30.23;16.38;;;;;;;1.74;100.00;98920.78;5004616;28;20507;-59
2023/03/08 09:25:10;;;;;;;25.35;14.48;;;;;;;1.78;100.00;98913.97;4993596;28;20045;-58
2023/03/08 09:27:37;;;;;;;23.00;13.63;;;;;;;1.82;100.00;98908.88;4996503;28;20045;-58
2023/03/08 09:30:03;;;;;;;24.17;13.18;;;;;;;1.79;100.00;98901.22;4994019;28;20039;-58
2023/03/08 09:32:31;;;;;;;21.33;12.07;;;;;;;1.76;100.00;98901.25;4991751;28;20031;-59
2023/03/08 09:34:57;;;;;;;26.05;13.40;;;;;;;1.76;99.89;98892.75;4992112;28;20050;-58
2023/03/08 09:37:22;;;;;;;23.90;13.15;;;;;;;1.77;100.00;98895.31;5001651;28;20534;-58
2023/03/08 09:39:50;;;;;;;21.45;13.95;;;;;;;1.78;100.00;98891.03;4990970;28;20506;-58
2023/03/08 09:42:20;;;;;;;24.23;13.38;;;;;;;1.75;100.00;98894.44;4993453;28;20049;-58
2023/03/08 09:45:22;;;;;;;22.42;13.32;;;;;;;1.83;100.00;98900.34;4991857;28;20558;-59
2023/03/08 09:48:07;;;;;;;27.67;15.82;;;;;;;1.88;99.98;98889.31;4995317;28;20029;-59
2023/03/08 09:50:42;;;;;;;23.55;13.63;;;;;;;1.92;99.83;98884.22;5002151;28;20034;-58
2023/03/08 09:53:50;;;;;;;22.42;12.57;;;;;;;1.99;100.00;98883.31;4995022;28;20026;-58
2023/03/08 09:56:32;;;;;;;26.65;14.55;;;;;;;2.12;99.81;98872.22;4995151;28;20123;-58
2023/03/08 09:59:04;;;;;;;21.33;11.88;;;;;;;2.24;99.26;98864.50;4993451;28;20048;-59
2023/03/08 10:01:30;;;;;;;24.02;12.90;;;;;;;2.29;98.98;98862.78;4993120;28;20030;-58
2023/03/08 10:04:06;;;;;;;28.45;15.05;;;;;;;2.38;98.35;98847.44;4987394;28;20450;-58
2023/03/08 10:06:46;;;;;;;23.80;15.05;;;;;;;2.48;97.98;98847.38;4992484;28;20038;-58
2023/03/08 10:09:30;;;;;;;26.08;16.25;;;;;;;2.54;97.70;98855.81;4990380;28;20038;-59
2023/03/08 10:12:04;;;;;;;21.63;12.93;;;;;;;2.43;97.32;98857.59;4991049;28;20108;-59
2023/03/08 10:14:34;;;;;;;30.92;16.38;;;;;;;2.38;98.31;98872.06;4991503;28;20052;-58
2023/03/08 10:17:07;;;;;;;30.05;16.63;;;;;;;2.30;98.19;98867.03;4994886;28;20164;-58
2023/03/08 10:19:45;;;;;;;27.58;16.42;;;;;;;2.32;98.73;98867.84;4996016;28;20057;-59
2023/03/08 10:22:28;;;;;;;32.20;17.95;;;;;;;2.36;98.52;98874.66;4998045;28;20103;-58
2023/03/08 10:25:01;;;;;;;36.17;17.73;;;;;;;2.48;98.55;98866.06;4992117;28;20550;-59
2023/03/08 10:27:30;;;;;;;57.00;24.83;;;;;;;2.54;98.03;98863.47;4994738;28;20056;-58
2023/03/08 10:29:58;;;;;;;28.90;15.60;;;;;;;2.56;98.44;98854.09;4995267;28;20035;-58
2023/03/08 10:32:25;;;;;;;24.35;13.65;;;;;;;2.61;98.52;98842.16;4992637;28;20017;-58
2023/03/08 10:34:51;;;;;;;28.38;15.00;;;;;;;2.65;97.54;98841.28;4989363;28;20042;-58
2023/03/08 10:37:21;;;;;;;24.15;14.07;;;;;;;2.77;98.11;98853.94;4998700;28;20441;-60
2023/03/08 10:39:53;;;;;;;27.13;14.45;;;;;;;2.80;97.60;98843.72;4996040;28;20721;-59
2023/03/08 10:42:22;;;;;;;22.23;13.45;;;;;;;2.85;97.43;98849.63;4992798;28;20057;-58
2023/03/08 10:45:01;;;;;;;22.65;12.95;;;;;;;2.89;97.73;98843.66;4990785;28;20033;-58
2023/03/08 10:47:35;;;;;;;21.73;12.60;;;;;;;2.91;97.74;98852.13;4994785;28;20125;-59
2023/03/08 10:50:16;;;;;;;23.73;13.30;;;;;;;2.99;97.46;98849.53;4976872;28;20077;-58
2023/03/08 10:52:43;;;;;;;24.02;13.18;;;;;;;3.05;96.98;98849.47;4974839;28;20042;-59
2023/03/08 10:55:21;;;;;;;24.70;14.00;;;;;;;3.08;97.46;98839.22;4973552;28;20529;-58
2023/03/08 10:57:54;;;;;;;21.05;13.43;;;;;;;3.14;96.90;98840.88;4970658;28;20563;-58
2023/03/08 11:00:19;;;;;;;19.90;12.02;;;;;;;3.13;97.03;98850.22;4972952;28;20709;-58
2023/03/08 11:02:47;;;;;;;18.65;11.80;;;;;;;2.99;96.85;98847.78;4967463;28;20038;-59
2023/03/08 11:05:25;;;;;;;23.60;14.60;;;;;;;3.01;96.72;98852.03;4969953;28;20030;-59
2023/03/08 11:07:57;;;;;;;26.85;13.63;;;;;;;3.05;97.79;98841.81;4974640;28;20042;-59
2023/03/08 11:10:26;;;;;;;19.30;12.98;;;;;;;3.06;97.40;98842.63;4978520;28;20038;-59
2023/03/08 11:13:05;;;;;;;26.23;14.25;;;;;;;3.12;97.26;98835.78;4975654;28;20048;-59
2023/03/08 11:15:36;;;;;;;25.27;12.90;;;;;;;3.27;97.77;98833.06;4970714;28;20545;-59
2023/03/08 11:18:35;;;;;;;23.95;14.10;;;;;;;3.44;96.60;98827.78;4974433;28;20487;-59
2023/03/08 11:21:16;;;;;;;26.10;12.68;;;;;;;3.58;96.30;98830.19;4968877;28;20037;-59
2023/03/08 11:23:53;;;;;;;23.20;13.85;;;;;;;3.72;96.49;98818.09;4977998;28;20034;-59